Time;durP1;ratioP1;P1;durP2;ratioP2;P2;SDS_P1;SDS_P2;PMS_P1;PMS_P2;Temp;Humidity;BMP_temperature;BMP_pressure;BME280_temperature;BME280_humidity;BME280_pressure;Samples;Min_cycle;Max_cycle;Signal;HPM_P1;HPM_P2
2021/12/15 00:02:27;;;;;;;116.70;27.17;;;;;;;0.61;100.00;97922.88;4922045;29;20043;-69
2021/12/15 00:04:54;;;;;;;94.90;25.02;;;;;;;0.61;100.00;97921.00;4922428;29;20489;-68
2021/12/15 00:07:22;;;;;;;91.72;27.27;;;;;;;0.63;100.00;97923.41;4919317;29;20047;-67
2021/12/15 00:09:48;;;;;;;94.82;26.02;;;;;;;0.49;100.00;97915.09;4921706;29;20125;-67
2021/12/15 00:12:14;;;;;;;93.85;26.08;;;;;;;0.46;100.00;97916.44;4917789;29;20486;-67
2021/12/15 00:14:41;;;;;;;96.25;28.02;;;;;;;0.50;100.00;97914.78;4923642;29;20055;-66
2021/12/15 00:17:07;;;;;;;97.72;26.98;;;;;;;0.52;100.00;97917.22;4918590;28;20056;-66
2021/12/15 00:19:33;;;;;;;82.60;25.35;;;;;;;0.49;100.00;97910.50;4919568;29;20044;-66
2021/12/15 00:21:59;;;;;;;86.13;25.90;;;;;;;0.52;100.00;97915.38;4921173;29;20126;-67
2021/12/15 00:24:25;;;;;;;82.35;26.38;;;;;;;0.64;100.00;97909.66;4917235;28;20039;-66
2021/12/15 00:26:52;;;;;;;75.07;24.10;;;;;;;1.00;100.00;97906.88;4922439;29;20498;-67
2021/12/15 00:29:18;;;;;;;69.28;22.35;;;;;;;1.12;100.00;97902.00;4917468;29;20044;-67
2021/12/15 00:31:46;;;;;;;76.60;24.27;;;;;;;1.08;100.00;97900.09;4920762;29;20052;-66
2021/12/15 00:34:12;;;;;;;70.97;23.70;;;;;;;1.08;100.00;97905.50;4922806;29;20130;-67
2021/12/15 00:36:39;;;;;;;62.35;22.95;;;;;;;1.21;100.00;97904.13;4926025;29;20497;-67
2021/12/15 00:39:06;;;;;;;62.00;21.65;;;;;;;1.34;100.00;97907.03;4917223;29;20044;-68
2021/12/15 00:41:32;;;;;;;60.05;21.60;;;;;;;1.18;100.00;97907.38;4919308;29;20513;-67
2021/12/15 00:43:58;;;;;;;58.15;21.90;;;;;;;0.89;100.00;97913.41;4930651;29;20055;-67
2021/12/15 00:46:24;;;;;;;56.83;20.92;;;;;;;0.85;100.00;97917.72;4915154;29;20040;-67
2021/12/15 00:48:50;;;;;;;49.75;19.60;;;;;;;0.84;100.00;97916.09;4921122;29;20058;-70
2021/12/15 00:51:15;;;;;;;58.65;21.02;;;;;;;0.78;100.00;97914.50;4917203;29;20413;-68
2021/12/15 00:53:41;;;;;;;60.08;21.10;;;;;;;0.72;100.00;97911.00;4921424;29;20224;-68
2021/12/15 00:56:07;;;;;;;57.42;21.05;;;;;;;0.69;100.00;97920.44;4918283;29;20520;-66
2021/12/15 00:58:32;;;;;;;56.28;21.42;;;;;;;0.64;100.00;97917.75;4918373;29;20044;-68
2021/12/15 01:01:01;;;;;;;64.65;24.55;;;;;;;0.65;100.00;97922.09;4923515;29;20050;-67
2021/12/15 01:03:29;;;;;;;56.40;21.25;;;;;;;0.71;100.00;97928.28;4914705;29;20044;-67
2021/12/15 01:06:03;;;;;;;59.60;22.20;;;;;;;0.67;100.00;97913.72;4922674;29;20036;-68
2021/12/15 01:08:31;;;;;;;72.43;23.02;;;;;;;0.68;100.00;97916.13;4918228;29;20047;-66
2021/12/15 01:11:22;;;;;;;64.38;23.25;;;;;;;0.63;100.00;97918.84;4921777;29;21609;-67
2021/12/15 01:22:08;;;;;;;77.70;23.00;;;;;;;0.73;100.00;97935.00;4914563;29;20046;-67
2021/12/15 01:24:34;;;;;;;81.63;24.33;;;;;;;0.79;100.00;97924.19;4921023;29;20043;-67
2021/12/15 01:26:59;;;;;;;78.35;23.98;;;;;;;0.82;100.00;97926.38;4922383;29;20040;-67
2021/12/15 01:29:25;;;;;;;71.22;23.60;;;;;;;0.85;100.00;97925.81;4916074;29;20055;-67
2021/12/15 01:31:51;;;;;;;84.38;24.60;;;;;;;0.85;100.00;97923.13;4917827;29;20058;-67
2021/12/15 01:34:16;;;;;;;74.68;23.73;;;;;;;0.80;100.00;97928.53;4917182;29;20051;-67
2021/12/15 01:36:42;;;;;;;87.97;25.30;;;;;;;0.84;100.00;97924.19;4921383;29;20039;-67
2021/12/15 01:39:08;;;;;;;95.78;26.30;;;;;;;0.95;100.00;97928.47;4913040;29;20042;-68
2021/12/15 01:41:33;;;;;;;89.90;27.98;;;;;;;0.91;100.00;97930.13;4918759;29;20056;-67
2021/12/15 01:49:25;;;;;;;86.78;25.58;;;;;;;1.06;100.00;97935.47;4917367;29;20622;-67
2021/12/15 01:51:50;;;;;;;83.72;24.50;;;;;;;1.25;100.00;97934.88;4918487;29;20050;-69
2021/12/15 01:54:17;;;;;;;108.22;27.27;;;;;;;1.02;100.00;97939.00;4913371;29;21925;-67
2021/12/15 01:56:43;;;;;;;95.60;27.33;;;;;;;0.96;100.00;97940.91;4921140;29;20047;-69
2021/12/15 01:59:10;;;;;;;88.40;24.27;;;;;;;0.89;100.00;97940.38;4915201;29;20063;-68
2021/12/15 02:01:36;;;;;;;97.85;23.50;;;;;;;0.71;100.00;97950.66;4920321;29;20044;-67
2021/12/15 02:04:01;;;;;;;89.93;24.50;;;;;;;0.61;100.00;97947.16;4921850;29;20055;-69
2021/12/15 02:06:28;;;;;;;112.93;25.55;;;;;;;0.52;100.00;97945.00;4917884;29;20067;-68
2021/12/15 02:08:53;;;;;;;142.85;25.95;;;;;;;0.50;100.00;97947.16;4910387;29;20040;-68
2021/12/15 02:11:20;;;;;;;126.53;25.42;;;;;;;0.51;100.00;97950.66;4927446;29;20139;-68
2021/12/15 02:13:46;;;;;;;114.43;25.90;;;;;;;0.54;100.00;97948.25;4930490;29;20079;-67
2021/12/15 02:16:11;;;;;;;131.60;27.38;;;;;;;0.52;100.00;97944.19;4921878;29;20049;-66
2021/12/15 02:18:44;;;;;;;173.63;29.25;;;;;;;0.50;100.00;97949.03;4927021;29;20115;-70
2021/12/15 02:21:17;;;;;;;169.55;27.73;;;;;;;0.50;100.00;97954.44;4919079;29;20063;-68
2021/12/15 02:23:49;;;;;;;147.13;27.88;;;;;;;0.50;100.00;97949.03;4921158;29;20426;-67
2021/12/15 02:26:22;;;;;;;209.70;28.30;;;;;;;0.45;100.00;97949.88;4914450;29;20050;-67
2021/12/15 02:28:51;;;;;;;293.52;31.45;;;;;;;0.48;100.00;97953.91;4921250;29;20044;-66
2021/12/15 02:37:31;;;;;;;181.13;28.67;;;;;;;0.43;100.00;97948.50;4919494;29;20047;-67
2021/12/15 02:39:54;;;;;;;219.15;32.60;;;;;;;0.40;100.00;97947.16;4916601;29;20048;-70
2021/12/15 02:42:28;;;;;;;249.25;32.92;;;;;;;0.37;100.00;97958.47;4914365;29;20047;-70
2021/12/15 02:44:55;;;;;;;178.57;30.35;;;;;;;0.40;100.00;97941.78;4920246;29;20048;-69
2021/12/15 02:47:25;;;;;;;401.77;39.95;;;;;;;0.43;100.00;97948.50;4916559;29;20039;-68
2021/12/15 02:49:53;;;;;;;274.35;32.72;;;;;;;0.38;100.00;97942.03;4922678;29;20036;-68
2021/12/15 02:52:19;;;;;;;195.25;31.90;;;;;;;0.41;100.00;97943.38;4919862;29;20190;-66
2021/12/15 02:54:44;;;;;;;221.40;33.88;;;;;;;0.40;100.00;97941.78;4925013;29;20134;-68
2021/12/15 02:57:12;;;;;;;203.32;30.85;;;;;;;0.47;100.00;97953.09;4919366;29;20478;-66
2021/12/15 02:59:54;;;;;;;267.63;38.33;;;;;;;0.45;100.00;97949.88;4924758;29;20094;-69
2021/12/15 03:03:06;;;;;;;281.20;32.05;;;;;;;0.49;100.00;97955.53;4920472;29;20127;-67
2021/12/15 03:05:50;;;;;;;145.15;29.65;;;;;;;0.49;100.00;97955.53;4914926;29;20058;-69
2021/12/15 03:08:15;;;;;;;196.18;29.48;;;;;;;0.49;100.00;97961.72;4918525;29;20405;-67
2021/12/15 03:16:15;;;;;;;191.25;29.67;;;;;;;0.51;100.00;97956.88;4918353;29;20138;-66
2021/12/15 03:18:40;;;;;;;220.88;30.80;;;;;;;0.52;100.00;97952.28;4911800;29;20713;-68
2021/12/15 03:21:09;;;;;;;198.25;28.13;;;;;;;0.54;100.00;97960.91;4917575;29;20138;-67
2021/12/15 03:23:41;;;;;;;191.15;30.05;;;;;;;0.53;100.00;97954.69;4924102;29;20031;-69
2021/12/15 03:26:09;;;;;;;206.05;30.83;;;;;;;0.62;100.00;97957.66;4925319;29;20075;-70
2021/12/15 03:36:51;;;;;;;208.90;29.00;;;;;;;0.60;100.00;97954.44;4923263;29;20043;-68
2021/12/15 03:39:17;;;;;;;177.10;29.60;;;;;;;0.61;100.00;97949.84;4920440;29;20048;-69
2021/12/15 03:41:42;;;;;;;205.52;28.35;;;;;;;0.60;100.00;97953.63;4934515;29;20080;-69
2021/12/15 03:44:08;;;;;;;187.00;27.63;;;;;;;0.56;100.00;97953.38;4917818;29;20044;-69
2021/12/15 03:46:34;;;;;;;175.07;25.98;;;;;;;0.60;100.00;97954.44;4905785;29;20058;-68
2021/12/15 03:48:59;;;;;;;203.00;25.95;;;;;;;0.61;100.00;97950.66;4923702;29;20040;-68
2021/12/15 03:51:25;;;;;;;217.02;26.77;;;;;;;0.55;100.00;97955.22;4915436;29;20528;-67
2021/12/15 03:53:51;;;;;;;224.65;27.45;;;;;;;0.56;100.00;97956.88;4922953;29;20552;-68
2021/12/15 03:56:17;;;;;;;265.13;32.33;;;;;;;0.56;100.00;97964.97;4917811;29;20397;-68
2021/12/15 03:58:45;;;;;;;213.60;29.55;;;;;;;0.60;100.00;97959.84;4924519;29;20047;-68
2021/12/15 04:01:15;;;;;;;195.07;27.88;;;;;;;0.51;100.00;97962.25;4919916;29;20501;-68
2021/12/15 04:03:45;;;;;;;262.45;29.45;;;;;;;0.53;100.00;97956.59;4926607;29;20610;-67
2021/12/15 04:06:25;;;;;;;146.05;27.75;;;;;;;0.69;100.00;97954.69;4929073;29;20055;-68
2021/12/15 04:08:50;;;;;;;121.72;26.00;;;;;;;0.96;100.00;97951.69;4921642;29;20513;-67
2021/12/15 04:11:18;;;;;;;112.13;24.08;;;;;;;1.05;100.00;97960.03;4917722;29;20214;-67
2021/12/15 04:13:46;;;;;;;187.27;27.52;;;;;;;0.82;100.00;97958.72;4921104;29;20374;-67
2021/12/15 04:16:26;;;;;;;173.75;29.23;;;;;;;0.64;100.00;97963.59;4917960;29;20119;-67
2021/12/15 04:18:52;;;;;;;196.98;28.92;;;;;;;0.51;100.00;97956.88;4923744;29;20047;-67
2021/12/15 04:21:18;;;;;;;197.35;28.73;;;;;;;0.54;100.00;97956.34;4918098;29;20098;-67
2021/12/15 04:23:52;;;;;;;198.65;28.90;;;;;;;0.50;100.00;97949.84;4921797;29;21736;-67
2021/12/15 04:26:18;;;;;;;205.32;29.73;;;;;;;0.55;100.00;97959.81;4918030;29;20100;-68
2021/12/15 04:28:43;;;;;;;168.13;28.50;;;;;;;0.55;100.00;97959.81;4923116;29;20536;-67
2021/12/15 04:31:14;;;;;;;199.02;28.35;;;;;;;0.43;100.00;97954.69;4921026;29;20048;-69
2021/12/15 04:33:44;;;;;;;170.70;25.42;;;;;;;0.43;100.00;97948.50;4930781;29;20051;-69
2021/12/15 04:36:12;;;;;;;207.43;28.48;;;;;;;0.45;100.00;97959.81;4925178;29;20043;-69
2021/12/15 04:38:41;;;;;;;170.75;31.48;;;;;;;0.46;100.00;97953.38;4923060;29;20047;-69
2021/12/15 04:41:11;;;;;;;207.90;27.40;;;;;;;0.41;100.00;97956.84;4917118;29;20063;-68
2021/12/15 04:43:40;;;;;;;227.52;28.10;;;;;;;0.38;100.00;97962.81;4920817;29;20126;-68
2021/12/15 04:46:08;;;;;;;154.45;28.33;;;;;;;0.40;100.00;97963.34;4915252;29;20114;-68
2021/12/15 04:48:35;;;;;;;169.60;29.48;;;;;;;0.45;100.00;97951.72;4918744;29;20048;-67
2021/12/15 04:51:01;;;;;;;152.13;25.73;;;;;;;0.38;100.00;97960.13;4922965;29;20501;-68
2021/12/15 04:53:27;;;;;;;190.68;28.48;;;;;;;0.40;100.00;97963.34;4917015;29;20062;-67
2021/12/15 04:55:53;;;;;;;174.00;26.65;;;;;;;0.36;100.00;97964.94;4921403;29;20385;-67
2021/12/15 04:58:18;;;;;;;173.93;27.05;;;;;;;0.33;100.00;97960.09;4917587;29;20055;-67
2021/12/15 05:00:52;;;;;;;146.57;26.13;;;;;;;0.36;100.00;97959.56;4922681;29;20724;-67
2021/12/15 05:03:18;;;;;;;203.20;27.13;;;;;;;0.34;100.00;97961.72;4916678;29;20055;-67
2021/12/15 05:05:43;;;;;;;158.98;28.10;;;;;;;0.36;100.00;97956.84;4922444;29;20048;-68
2021/12/15 05:08:10;;;;;;;158.50;27.92;;;;;;;0.35;100.00;97956.06;4917596;29;20130;-67
2021/12/15 05:10:36;;;;;;;192.07;29.60;;;;;;;0.33;100.00;97969.00;4930333;29;20082;-68
2021/12/15 05:13:03;;;;;;;210.95;29.73;;;;;;;0.37;100.00;97980.03;4924785;29;20524;-70
2021/12/15 05:15:29;;;;;;;193.32;28.27;;;;;;;0.43;100.00;97978.16;4922198;29;20498;-68
2021/12/15 05:17:55;;;;;;;121.60;26.02;;;;;;;0.57;100.00;97969.25;4927369;29;20421;-68
2021/12/15 05:20:22;;;;;;;126.90;26.05;;;;;;;0.82;100.00;97970.31;4916947;29;20051;-68
2021/12/15 05:22:48;;;;;;;150.27;26.95;;;;;;;0.99;100.00;97975.44;4924608;29;20398;-66
2021/12/15 05:25:14;;;;;;;213.50;30.58;;;;;;;0.69;100.00;97985.16;4917207;28;20048;-68
2021/12/15 05:27:41;;;;;;;180.00;26.98;;;;;;;0.57;100.00;97982.72;4919255;29;20050;-67
2021/12/15 05:30:09;;;;;;;182.93;30.30;;;;;;;0.54;100.00;97991.38;4915619;29;20183;-66
2021/12/15 05:32:35;;;;;;;166.40;27.73;;;;;;;0.47;100.00;97988.16;4921079;29;20079;-68
2021/12/15 05:35:01;;;;;;;141.18;27.25;;;;;;;0.40;100.00;97992.16;4922425;29;20036;-68
2021/12/15 05:37:28;;;;;;;128.95;29.27;;;;;;;0.39;100.00;97996.75;4918228;29;20378;-68
2021/12/15 05:39:54;;;;;;;125.97;27.85;;;;;;;0.36;100.00;97997.28;4923544;29;20175;-68
2021/12/15 05:42:21;;;;;;;134.95;27.98;;;;;;;0.36;100.00;98008.06;4915927;29;20063;-69
2021/12/15 05:44:48;;;;;;;116.97;26.42;;;;;;;0.36;100.00;98000.81;4921183;29;20051;-68
2021/12/15 05:47:16;;;;;;;126.50;27.55;;;;;;;0.41;100.00;98008.06;4899244;29;20087;-66
2021/12/15 05:49:42;;;;;;;122.88;28.58;;;;;;;0.37;100.00;98009.69;4922520;29;20594;-66
2021/12/15 05:52:08;;;;;;;133.13;28.98;;;;;;;0.43;100.00;98010.50;4918391;29;20052;-68
2021/12/15 05:54:34;;;;;;;106.97;25.95;;;;;;;0.45;100.00;98017.25;4923657;29;20044;-67
2021/12/15 05:57:00;;;;;;;113.95;27.73;;;;;;;0.37;100.00;98010.50;4920717;29;20039;-68
2021/12/15 05:59:26;;;;;;;115.35;27.52;;;;;;;0.46;100.00;98007.28;4917846;28;20489;-69
2021/12/15 06:01:52;;;;;;;131.20;28.02;;;;;;;0.38;100.00;98016.72;4922841;29;20047;-69
2021/12/15 06:04:20;;;;;;;129.40;27.33;;;;;;;0.35;100.00;98018.03;4906232;29;20072;-67
2021/12/15 06:06:45;;;;;;;145.88;27.67;;;;;;;0.33;100.00;98022.09;4923703;29;20494;-67
2021/12/15 06:09:12;;;;;;;155.50;28.80;;;;;;;0.31;100.00;98019.66;4914572;29;20070;-68
2021/12/15 06:11:39;;;;;;;146.15;26.67;;;;;;;0.31;100.00;98019.66;4922052;29;20501;-68
2021/12/15 06:14:06;;;;;;;149.40;27.10;;;;;;;0.31;100.00;98025.06;4917351;29;20075;-69
2021/12/15 06:16:33;;;;;;;132.70;29.63;;;;;;;0.30;100.00;98025.31;4920150;29;20046;-68
2021/12/15 06:18:59;;;;;;;167.20;28.98;;;;;;;0.32;100.00;98021.25;4922488;29;20493;-69
2021/12/15 06:21:25;;;;;;;141.57;26.92;;;;;;;0.28;100.00;98014.00;4918696;29;20131;-68
2021/12/15 06:23:50;;;;;;;239.27;33.53;;;;;;;0.26;100.00;98019.66;4921896;29;20036;-67
2021/12/15 06:26:18;;;;;;;200.02;29.25;;;;;;;0.27;100.00;98023.16;4915236;29;20540;-68
2021/12/15 06:28:43;;;;;;;223.40;30.80;;;;;;;0.27;100.00;98026.66;4921752;29;20051;-68
2021/12/15 06:31:11;;;;;;;206.85;29.70;;;;;;;0.28;100.00;98027.47;4917346;29;20083;-68
2021/12/15 06:33:39;;;;;;;260.23;36.67;;;;;;;0.25;100.00;98026.09;4920556;29;20150;-67
2021/12/15 06:36:06;;;;;;;200.90;29.95;;;;;;;0.26;100.00;98016.97;4913787;29;20047;-68
2021/12/15 06:38:42;;;;;;;202.10;31.98;;;;;;;0.34;100.00;98029.09;4922273;29;20131;-67
2021/12/15 06:41:08;;;;;;;194.05;28.38;;;;;;;0.30;100.00;98036.09;4912884;29;20075;-67
2021/12/15 06:43:36;;;;;;;172.15;28.02;;;;;;;0.28;100.00;98032.84;4922993;29;20043;-67
2021/12/15 06:59:27;;;;;;;169.43;27.90;;;;;;;0.44;100.00;98047.19;4915177;29;20662;-66
2021/12/15 07:01:52;;;;;;;243.30;30.83;;;;;;;0.41;100.00;98045.00;4917620;29;20044;-67
2021/12/15 07:04:20;;;;;;;208.52;28.35;;;;;;;0.41;100.00;98050.41;4914407;29;20570;-68
2021/12/15 07:06:46;;;;;;;147.45;27.20;;;;;;;0.46;100.00;98034.22;4920428;29;20051;-68
2021/12/15 07:09:12;;;;;;;146.07;26.75;;;;;;;0.49;100.00;98039.09;4914731;29;20035;-67
2021/12/15 07:11:38;;;;;;;145.45;26.25;;;;;;;0.44;100.00;98047.19;4921287;28;20044;-68
2021/12/15 07:14:03;;;;;;;138.80;28.48;;;;;;;0.48;100.00;98042.84;4913906;29;20036;-66
2021/12/15 07:16:32;;;;;;;123.30;24.63;;;;;;;0.50;100.00;98041.50;4918397;29;20054;-68
2021/12/15 07:19:15;;;;;;;134.27;25.92;;;;;;;0.49;100.00;98052.56;4919302;29;20040;-68
2021/12/15 07:21:51;;;;;;;145.93;26.13;;;;;;;0.51;100.00;98051.22;4920380;29;20051;-69
2021/12/15 07:24:16;;;;;;;145.43;26.13;;;;;;;0.48;100.00;98057.13;4910407;29;20052;-67
2021/12/15 07:26:41;;;;;;;124.38;25.48;;;;;;;0.47;100.00;98065.50;4918468;29;20210;-68
2021/12/15 07:29:07;;;;;;;131.65;24.13;;;;;;;0.51;100.00;98066.59;4913412;29;20094;-68
2021/12/15 07:31:32;;;;;;;123.38;26.15;;;;;;;0.52;100.00;98065.50;4915960;29;20126;-68
2021/12/15 07:33:58;;;;;;;130.77;26.85;;;;;;;0.47;100.00;98069.00;4918395;29;20102;-67
2021/12/15 07:36:23;;;;;;;125.70;25.02;;;;;;;0.53;100.00;98070.63;4919160;29;20052;-66
2021/12/15 07:38:48;;;;;;;133.48;26.13;;;;;;;0.54;100.00;98068.72;4923265;29;20070;-69
2021/12/15 07:41:27;;;;;;;123.30;24.88;;;;;;;0.54;100.00;98074.97;4916182;29;20063;-68
2021/12/15 07:43:55;;;;;;;119.18;22.92;;;;;;;0.60;100.00;98083.84;4925243;29;20130;-67
2021/12/15 07:46:20;;;;;;;111.28;22.98;;;;;;;0.61;100.00;98084.66;4917529;29;20044;-68
2021/12/15 07:48:47;;;;;;;107.93;23.73;;;;;;;0.63;100.00;98083.34;4926200;29;20049;-67
2021/12/15 07:51:13;;;;;;;101.30;23.17;;;;;;;0.72;100.00;98084.41;4917318;29;20070;-67
2021/12/15 07:53:41;;;;;;;108.28;24.60;;;;;;;0.80;100.00;98090.34;4921441;29;20047;-69
2021/12/15 07:56:07;;;;;;;99.60;23.63;;;;;;;0.81;100.00;98092.78;4921510;28;20039;-66
2021/12/15 07:58:32;;;;;;;103.10;22.90;;;;;;;0.90;100.00;98093.88;4926295;28;20183;-70
2021/12/15 08:01:01;;;;;;;80.85;22.90;;;;;;;0.96;100.00;98094.66;4925808;28;20039;-65
2021/12/15 08:03:28;;;;;;;81.18;20.00;;;;;;;0.78;100.00;98101.41;4915972;29;20075;-68
2021/12/15 08:05:53;;;;;;;87.75;21.92;;;;;;;0.82;100.00;98096.28;4925739;29;20127;-67
2021/12/15 08:08:20;;;;;;;83.63;21.23;;;;;;;0.82;100.00;98097.09;4921058;28;20500;-69
2021/12/15 08:10:46;;;;;;;89.57;21.02;;;;;;;0.90;100.00;98103.81;4929684;29;20071;-67
2021/12/15 08:13:15;;;;;;;86.35;21.38;;;;;;;0.81;100.00;98105.44;4920571;29;20071;-67
2021/12/15 08:15:40;;;;;;;118.65;33.58;;;;;;;0.82;100.00;98098.97;4928158;29;20047;-69
2021/12/15 08:18:06;;;;;;;95.68;25.73;;;;;;;0.80;100.00;98099.25;4929650;28;20050;-68
2021/12/15 08:20:34;;;;;;;96.07;24.88;;;;;;;0.91;100.00;98102.75;4929169;28;20389;-68
2021/12/15 08:22:59;;;;;;;89.55;21.83;;;;;;;1.02;100.00;98103.56;4925657;28;20056;-68
2021/12/15 08:25:25;;;;;;;104.47;26.55;;;;;;;0.95;100.00;98106.53;4918103;28;20122;-67
2021/12/15 08:27:53;;;;;;;104.90;24.92;;;;;;;1.01;100.00;98105.47;4930529;29;20089;-65
2021/12/15 08:30:23;;;;;;;105.95;24.45;;;;;;;0.99;100.00;98107.63;4923777;29;20394;-68
2021/12/15 08:32:53;;;;;;;108.57;24.45;;;;;;;0.90;100.00;98107.34;4925588;29;20051;-69
2021/12/15 08:35:21;;;;;;;110.30;24.23;;;;;;;0.96;100.00;98108.16;4921741;29;20067;-67
2021/12/15 08:37:47;;;;;;;103.47;23.77;;;;;;;1.03;100.00;98116.00;4927093;29;20048;-66
2021/12/15 08:40:16;;;;;;;104.15;24.17;;;;;;;1.07;100.00;98108.97;4921438;29;20044;-66
2021/12/15 08:42:41;;;;;;;96.97;23.02;;;;;;;1.23;100.00;98113.28;4925002;29;20039;-66
2021/12/15 08:45:07;;;;;;;104.75;25.40;;;;;;;1.04;100.00;98113.00;4920671;29;20477;-68
2021/12/15 08:47:33;;;;;;;88.72;23.23;;;;;;;0.83;100.00;98114.06;4924215;29;20047;-66
2021/12/15 08:49:59;;;;;;;91.38;23.25;;;;;;;0.84;100.00;98108.41;4925536;29;20043;-68
2021/12/15 08:52:24;;;;;;;99.18;26.05;;;;;;;0.95;100.00;98106.53;4923595;29;20445;-68
2021/12/15 08:54:50;;;;;;;127.38;42.45;;;;;;;1.02;100.00;98103.56;4929364;29;20043;-69
2021/12/15 08:57:15;;;;;;;121.32;33.15;;;;;;;0.97;100.00;98108.97;4921644;29;20091;-69
2021/12/15 08:59:40;;;;;;;139.18;46.85;;;;;;;0.95;100.00;98122.72;4925198;29;20040;-69
2021/12/15 09:02:06;;;;;;;111.22;27.35;;;;;;;1.03;100.00;98124.91;4919767;29;20191;-65
2021/12/15 09:04:32;;;;;;;113.95;29.02;;;;;;;1.13;100.00;98114.09;4927627;29;20071;-69
2021/12/15 09:06:58;;;;;;;92.53;23.15;;;;;;;1.24;100.00;98122.19;4927946;29;20040;-69
2021/12/15 09:09:25;;;;;;;110.35;32.17;;;;;;;1.32;100.00;98119.75;4921433;29;20071;-68
2021/12/15 09:11:52;;;;;;;89.15;25.83;;;;;;;1.20;100.00;98121.13;4926104;29;20107;-67
2021/12/15 09:14:18;;;;;;;92.28;25.90;;;;;;;1.07;100.00;98120.56;4919404;29;20044;-67
2021/12/15 09:16:46;;;;;;;92.50;33.75;;;;;;;1.09;100.00;98112.22;4924572;29;20070;-68
2021/12/15 09:19:11;;;;;;;77.55;21.83;;;;;;;1.09;100.00;98121.09;4918726;29;20498;-67
2021/12/15 09:21:38;;;;;;;84.30;25.33;;;;;;;1.14;100.00;98115.72;4925235;29;20054;-68
2021/12/15 09:24:06;;;;;;;80.10;22.95;;;;;;;1.07;100.00;98117.06;4920736;29;20094;-70
2021/12/15 09:26:33;;;;;;;82.00;23.38;;;;;;;0.89;100.00;98123.81;4924761;29;20139;-68
2021/12/15 09:28:59;;;;;;;71.07;23.33;;;;;;;0.76;100.00;98120.56;4926011;29;20044;-67
2021/12/15 09:31:25;;;;;;;81.00;27.38;;;;;;;0.87;100.00;98125.97;4918580;29;20050;-68
2021/12/15 09:33:53;;;;;;;86.63;26.63;;;;;;;0.89;100.00;98121.09;4925223;29;20065;-67
2021/12/15 09:36:20;;;;;;;77.00;30.52;;;;;;;1.03;100.00;98127.59;4920363;29;20123;-68
2021/12/15 09:38:53;;;;;;;72.20;28.52;;;;;;;1.00;100.00;98121.91;4925705;29;20043;-67
2021/12/15 09:41:20;;;;;;;77.72;26.98;;;;;;;1.06;100.00;98126.22;4926952;29;20047;-68
2021/12/15 09:43:49;;;;;;;77.75;26.88;;;;;;;1.02;100.00;98125.16;4926203;29;20457;-68
2021/12/15 09:46:27;;;;;;;68.10;23.40;;;;;;;1.10;100.00;98127.34;4919964;29;20055;-70
2021/12/15 10:02:34;;;;;;;60.95;22.90;;;;;;;0.95;100.00;98118.16;4914556;29;20346;-68
2021/12/15 10:18:47;;;;;;;57.97;22.42;;;;;;;1.56;100.00;98108.38;4923293;28;20035;-68
2021/12/15 10:21:26;;;;;;;65.40;25.77;;;;;;;1.52;100.00;98105.41;4918898;28;20040;-67
2021/12/15 10:23:52;;;;;;;47.45;19.13;;;;;;;1.87;100.00;98105.59;4924223;28;20146;-68
2021/12/15 10:26:19;;;;;;;49.25;19.27;;;;;;;1.91;100.00;98107.47;4915647;28;20043;-68
2021/12/15 10:28:49;;;;;;;46.67;18.13;;;;;;;1.92;100.00;98092.06;4924277;28;20107;-68
2021/12/15 10:31:16;;;;;;;40.75;17.58;;;;;;;1.68;100.00;98092.69;4919010;28;20086;-68
2021/12/15 10:33:52;;;;;;;41.03;16.00;;;;;;;1.79;100.00;98098.88;4922188;29;20047;-66
2021/12/15 10:36:20;;;;;;;37.88;16.77;;;;;;;1.93;100.00;98096.41;4910670;28;20052;-66
2021/12/15 10:38:54;;;;;;;44.83;21.40;;;;;;;1.98;100.00;98087.44;4918127;29;20043;-67
2021/12/15 10:41:54;;;;;;;37.53;15.82;;;;;;;1.62;100.00;98091.09;4919543;29;20965;-68
2021/12/15 10:44:26;;;;;;;33.80;14.48;;;;;;;2.00;100.00;98086.09;4911268;29;20398;-68
2021/12/15 10:46:59;;;;;;;26.63;12.40;;;;;;;1.91;100.00;98083.16;4918072;29;20370;-68
2021/12/15 10:49:29;;;;;;;28.75;13.30;;;;;;;2.05;100.00;98088.78;4918686;29;20585;-68
2021/12/15 10:52:08;;;;;;;27.92;13.73;;;;;;;1.97;100.00;98086.63;4921974;29;20551;-69
2021/12/15 10:54:45;;;;;;;28.60;14.27;;;;;;;1.60;100.00;98084.31;4922662;29;20490;-66
2021/12/15 10:57:16;;;;;;;33.53;13.63;;;;;;;1.51;100.00;98082.19;4917857;29;20054;-68
2021/12/15 10:59:45;;;;;;;25.67;12.63;;;;;;;1.76;100.00;98077.78;4923297;29;20044;-68
2021/12/15 11:02:32;;;;;;;29.33;13.57;;;;;;;1.86;100.00;98080.47;4918475;29;20574;-68
2021/12/15 11:05:14;;;;;;;34.47;14.48;;;;;;;2.07;100.00;98080.38;4923289;29;20387;-68
2021/12/15 11:07:54;;;;;;;33.00;13.15;;;;;;;2.14;100.00;98083.59;4920791;29;20079;-68
2021/12/15 11:10:32;;;;;;;39.22;18.25;;;;;;;2.26;100.00;98069.75;4920873;29;20056;-68
2021/12/15 11:13:02;;;;;;;27.55;11.68;;;;;;;2.20;100.00;98066.28;4936455;29;20458;-68
2021/12/15 11:15:32;;;;;;;31.92;13.95;;;;;;;2.37;100.00;98063.19;4928127;29;20147;-68
2021/12/15 11:17:59;;;;;;;27.42;12.73;;;;;;;2.54;100.00;98065.53;4929266;29;20142;-68
2021/12/15 11:20:27;;;;;;;26.05;11.77;;;;;;;2.87;100.00;98063.13;4923355;29;20429;-67
2021/12/15 11:23:02;;;;;;;22.85;11.75;;;;;;;2.64;100.00;98057.34;4928486;29;20202;-68
2021/12/15 11:25:31;;;;;;;23.45;11.40;;;;;;;2.26;100.00;98056.22;4924083;29;20460;-68
2021/12/15 11:28:05;;;;;;;27.90;11.77;;;;;;;2.61;100.00;98051.69;4927701;29;20452;-66
2021/12/15 11:30:33;;;;;;;24.00;11.18;;;;;;;2.48;100.00;98043.13;4926679;29;20047;-66
2021/12/15 11:33:08;;;;;;;28.48;11.20;;;;;;;2.27;100.00;98042.44;4926672;29;20595;-67
2021/12/15 11:35:38;;;;;;;26.85;11.18;;;;;;;2.01;100.00;98046.38;4927083;29;20082;-66
2021/12/15 11:38:05;;;;;;;;;;;;;;;2.06;100.00;98049.03;4925382;29;20116;-70
2021/12/15 11:40:39;;;;;;;29.77;11.55;;;;;;;2.36;100.00;98039.97;4927280;29;19915;-67
2021/12/15 11:43:06;;;;;;;25.38;10.52;;;;;;;2.74;100.00;98042.09;4920952;29;20047;-69
2021/12/15 11:45:34;;;;;;;20.42;9.50;;;;;;;2.81;100.00;98034.47;4924873;29;20058;-68
2021/12/15 11:48:17;;;;;;;21.33;10.32;;;;;;;2.95;100.00;98027.31;4927491;29;20066;-68
2021/12/15 11:50:43;;;;;;;24.55;10.30;;;;;;;2.86;100.00;98034.44;4928394;29;20107;-67
2021/12/15 11:53:21;;;;;;;23.23;10.25;;;;;;;2.50;100.00;98026.59;4921610;29;20050;-68
2021/12/15 11:55:47;;;;;;;23.65;9.77;;;;;;;2.31;100.00;98031.06;4927711;29;20052;-66
2021/12/15 11:58:12;;;;;;;23.35;10.07;;;;;;;2.36;100.00;98025.63;4919725;29;20162;-67
2021/12/15 12:00:37;;;;;;;24.83;10.30;;;;;;;2.29;100.00;98025.94;4926740;29;20442;-67
2021/12/15 12:03:03;;;;;;;27.73;11.32;;;;;;;2.20;100.00;98025.72;4924552;29;20051;-68
2021/12/15 12:05:32;;;;;;;30.90;13.57;;;;;;;2.26;100.00;98019.19;4923414;29;20036;-66
2021/12/15 12:08:00;;;;;;;28.10;11.80;;;;;;;2.33;100.00;98018.88;4928457;29;20048;-68
2021/12/15 12:10:44;;;;;;;28.35;12.48;;;;;;;2.58;100.00;98020.59;4924982;29;20445;-67
2021/12/15 12:13:15;;;;;;;25.23;13.10;;;;;;;2.60;100.00;98021.13;4917836;29;20090;-67
2021/12/15 12:15:50;;;;;;;24.58;12.63;;;;;;;2.49;100.00;98020.38;4926364;29;20065;-67
2021/12/15 12:18:22;;;;;;;23.10;11.45;;;;;;;2.45;100.00;98023.94;4918108;29;20063;-68
2021/12/15 12:21:02;;;;;;;23.63;12.13;;;;;;;2.43;100.00;98029.63;4925291;29;20051;-66
2021/12/15 12:23:29;;;;;;;;;;;;;;;2.34;100.00;98027.78;4921913;29;20690;-67
2021/12/15 12:25:58;;;;;;;24.63;12.18;;;;;;;2.31;100.00;98028.38;4926039;29;19914;-65
2021/12/15 12:28:32;;;;;;;32.13;13.35;;;;;;;2.39;100.00;98017.75;4921399;29;20421;-67
2021/12/15 12:31:02;;;;;;;25.95;11.73;;;;;;;2.38;100.00;98020.75;4924814;29;20071;-67
2021/12/15 12:33:28;;;;;;;28.65;13.80;;;;;;;2.28;100.00;98016.22;4915738;29;20445;-68
2021/12/15 12:36:05;;;;;;;23.88;11.85;;;;;;;2.41;100.00;98018.31;4926252;29;20046;-67